sensor_id;sensor_type;location;lat;lon;timestamp;pressure;altitude;pressure_sealevel;temperature;humidity
36630;BME280;36256;42.154;23.002;2023-04-16T00:01:01;96694.75;;;8.18;98.26
36630;BME280;36256;42.154;23.002;2023-04-16T00:03:28;96674.53;;;8.14;97.74
36630;BME280;36256;42.154;23.002;2023-04-16T00:05:55;96684.00;;;8.29;96.46
36630;BME280;36256;42.154;23.002;2023-04-16T00:08:22;96677.22;;;8.39;95.76
36630;BME280;36256;42.154;23.002;2023-04-16T00:10:54;96686.66;;;8.54;94.69
36630;BME280;36256;42.154;23.002;2023-04-16T00:13:20;96667.69;;;8.49;94.62
36630;BME280;36256;42.154;23.002;2023-04-16T00:15:48;96677.16;;;8.51;95.24
36630;BME280;36256;42.154;23.002;2023-04-16T00:18:14;96683.56;;;8.52;95.59
36630;BME280;36256;42.154;23.002;2023-04-16T00:20:41;96669.63;;;8.39;96.10
36630;BME280;36256;42.154;23.002;2023-04-16T00:23:07;96679.13;;;8.42;96.07
36630;BME280;36256;42.154;23.002;2023-04-16T00:25:34;96677.84;;;8.34;96.70
36630;BME280;36256;42.154;23.002;2023-04-16T00:28:01;96682.78;;;8.30;95.89
36630;BME280;36256;42.154;23.002;2023-04-16T00:30:28;96670.56;;;8.24;96.15
36630;BME280;36256;42.154;23.002;2023-04-16T00:32:54;96680.53;;;8.25;96.57
36630;BME280;36256;42.154;23.002;2023-04-16T00:35:21;96679.88;;;8.21;96.53
36630;BME280;36256;42.154;23.002;2023-04-16T00:37:48;96677.53;;;8.19;95.86
36630;BME280;36256;42.154;23.002;2023-04-16T00:40:14;96682.34;;;8.19;95.27
36630;BME280;36256;42.154;23.002;2023-04-16T00:42:41;96679.53;;;8.19;96.10
36630;BME280;36256;42.154;23.002;2023-04-16T00:45:08;96680.44;;;8.16;96.36
36630;BME280;36256;42.154;23.002;2023-04-16T00:47:35;96683.50;;;8.09;97.17
36630;BME280;36256;42.154;23.002;2023-04-16T00:50:03;96678.72;;;7.97;97.84
36630;BME280;36256;42.154;23.002;2023-04-16T00:52:30;96680.94;;;8.02;97.65
36630;BME280;36256;42.154;23.002;2023-04-16T00:54:58;96667.91;;;7.86;98.30
36630;BME280;36256;42.154;23.002;2023-04-16T00:57:25;96681.28;;;8.04;97.99
36630;BME280;36256;42.154;23.002;2023-04-16T00:59:52;96679.97;;;7.96;98.50
36630;BME280;36256;42.154;23.002;2023-04-16T01:02:19;96676.63;;;7.88;98.82
36630;BME280;36256;42.154;23.002;2023-04-16T01:04:45;96678.75;;;7.84;98.44
36630;BME280;36256;42.154;23.002;2023-04-16T01:07:12;96677.31;;;7.79;98.86
36630;BME280;36256;42.154;23.002;2023-04-16T01:09:39;96675.63;;;7.82;98.63
36630;BME280;36256;42.154;23.002;2023-04-16T01:12:05;96673.72;;;7.91;97.55
36630;BME280;36256;42.154;23.002;2023-04-16T01:14:32;96680.63;;;8.00;96.30
36630;BME280;36256;42.154;23.002;2023-04-16T01:17:02;96680.81;;;8.05;97.12
36630;BME280;36256;42.154;23.002;2023-04-16T01:19:29;96677.00;;;8.12;96.45
36630;BME280;36256;42.154;23.002;2023-04-16T01:22:02;96673.09;;;8.09;95.95
36630;BME280;36256;42.154;23.002;2023-04-16T01:24:29;96680.72;;;8.09;95.95
36630;BME280;36256;42.154;23.002;2023-04-16T01:26:59;96679.22;;;8.17;95.56
36630;BME280;36256;42.154;23.002;2023-04-16T01:29:26;96682.78;;;8.30;94.75
36630;BME280;36256;42.154;23.002;2023-04-16T01:31:53;96683.44;;;8.34;94.20
36630;BME280;36256;42.154;23.002;2023-04-16T01:34:19;96683.28;;;8.37;94.56
36630;BME280;36256;42.154;23.002;2023-04-16T01:36:46;96685.19;;;8.40;93.53
36630;BME280;36256;42.154;23.002;2023-04-16T01:39:13;96686.34;;;8.52;93.48
36630;BME280;36256;42.154;23.002;2023-04-16T01:41:41;96688.56;;;8.57;93.29
36630;BME280;36256;42.154;23.002;2023-04-16T01:44:09;96683.16;;;8.62;92.84
36630;BME280;36256;42.154;23.002;2023-04-16T01:46:36;96684.09;;;8.59;92.80
36630;BME280;36256;42.154;23.002;2023-04-16T01:49:03;96683.00;;;8.66;92.06
36630;BME280;36256;42.154;23.002;2023-04-16T01:51:30;96663.41;;;8.57;91.34
36630;BME280;36256;42.154;23.002;2023-04-16T01:53:57;96678.81;;;8.61;95.08
36630;BME280;36256;42.154;23.002;2023-04-16T01:56:24;96677.06;;;8.55;96.78
36630;BME280;36256;42.154;23.002;2023-04-16T01:58:51;96674.34;;;8.42;95.96
36630;BME280;36256;42.154;23.002;2023-04-16T02:01:18;96672.91;;;8.38;97.13
36630;BME280;36256;42.154;23.002;2023-04-16T02:03:45;96666.53;;;8.25;98.46
36630;BME280;36256;42.154;23.002;2023-04-16T02:06:12;96665.53;;;8.31;98.15
36630;BME280;36256;42.154;23.002;2023-04-16T02:08:39;96674.72;;;8.32;97.97
36630;BME280;36256;42.154;23.002;2023-04-16T02:11:07;96668.13;;;8.26;97.26
36630;BME280;36256;42.154;23.002;2023-04-16T02:13:33;96654.06;;;8.17;98.48
36630;BME280;36256;42.154;23.002;2023-04-16T02:16:00;96661.66;;;8.16;99.62
36630;BME280;36256;42.154;23.002;2023-04-16T02:18:27;96655.56;;;8.09;99.47
36630;BME280;36256;42.154;23.002;2023-04-16T02:20:57;96664.00;;;8.18;98.00
36630;BME280;36256;42.154;23.002;2023-04-16T02:23:24;96650.50;;;8.16;97.84
36630;BME280;36256;42.154;23.002;2023-04-16T02:25:51;96660.31;;;8.21;97.47
36630;BME280;36256;42.154;23.002;2023-04-16T02:28:17;96657.28;;;8.15;97.43
36630;BME280;36256;42.154;23.002;2023-04-16T02:30:44;96664.31;;;8.20;96.62
36630;BME280;36256;42.154;23.002;2023-04-16T02:33:11;96665.56;;;8.19;96.87
36630;BME280;36256;42.154;23.002;2023-04-16T02:35:38;96661.81;;;8.13;97.26
36630;BME280;36256;42.154;23.002;2023-04-16T02:38:06;96665.56;;;8.19;97.63
36630;BME280;36256;42.154;23.002;2023-04-16T02:40:33;96665.56;;;8.19;97.65
36630;BME280;36256;42.154;23.002;2023-04-16T02:43:00;96665.31;;;8.26;97.30
36630;BME280;36256;42.154;23.002;2023-04-16T02:45:26;96668.34;;;8.31;96.71
36630;BME280;36256;42.154;23.002;2023-04-16T02:47:53;96642.28;;;8.22;96.25
36630;BME280;36256;42.154;23.002;2023-04-16T02:50:19;96668.09;;;8.38;94.74
36630;BME280;36256;42.154;23.002;2023-04-16T02:52:46;96657.34;;;8.37;94.43
36630;BME280;36256;42.154;23.002;2023-04-16T02:55:13;96657.66;;;8.39;94.03
36630;BME280;36256;42.154;23.002;2023-04-16T02:57:40;96657.03;;;8.35;94.66
36630;BME280;36256;42.154;23.002;2023-04-16T03:00:08;96653.25;;;8.29;94.21
36630;BME280;36256;42.154;23.002;2023-04-16T03:02:35;96663.53;;;8.32;93.64
36630;BME280;36256;42.154;23.002;2023-04-16T03:05:02;96665.41;;;8.35;94.27
36630;BME280;36256;42.154;23.002;2023-04-16T03:07:29;96649.25;;;8.30;92.57
36630;BME280;36256;42.154;23.002;2023-04-16T03:09:55;96661.06;;;8.34;92.64
36630;BME280;36256;42.154;23.002;2023-04-16T03:12:22;96664.19;;;8.36;92.69
36630;BME280;36256;42.154;23.002;2023-04-16T03:14:50;96671.31;;;8.37;92.94
36630;BME280;36256;42.154;23.002;2023-04-16T03:17:17;96675.22;;;8.39;93.85
36630;BME280;36256;42.154;23.002;2023-04-16T03:19:44;96674.72;;;8.32;93.30
36630;BME280;36256;42.154;23.002;2023-04-16T03:22:12;96673.78;;;8.35;93.43
36630;BME280;36256;42.154;23.002;2023-04-16T03:24:38;96676.13;;;8.36;94.30
36630;BME280;36256;42.154;23.002;2023-04-16T03:27:05;96682.50;;;8.37;93.35
36630;BME280;36256;42.154;23.002;2023-04-16T03:29:31;96680.69;;;8.43;92.56
36630;BME280;36256;42.154;23.002;2023-04-16T03:31:58;96679.47;;;8.44;93.19
36630;BME280;36256;42.154;23.002;2023-04-16T03:34:24;96677.56;;;8.41;95.69
36630;BME280;36256;42.154;23.002;2023-04-16T03:36:51;96687.53;;;8.42;95.85
36630;BME280;36256;42.154;23.002;2023-04-16T03:39:18;96684.72;;;8.42;96.86
36630;BME280;36256;42.154;23.002;2023-04-16T03:41:44;96682.19;;;8.35;98.35
36630;BME280;36256;42.154;23.002;2023-04-16T03:44:11;96683.66;;;8.27;98.62
36630;BME280;36256;42.154;23.002;2023-04-16T03:46:38;96688.59;;;8.23;99.05
36630;BME280;36256;42.154;23.002;2023-04-16T03:49:04;96688.91;;;8.25;98.91
36630;BME280;36256;42.154;23.002;2023-04-16T03:51:31;96683.66;;;8.27;98.85
36630;BME280;36256;42.154;23.002;2023-04-16T03:53:58;96683.13;;;8.19;100.00
36630;BME280;36256;42.154;23.002;2023-04-16T03:56:24;96679.31;;;8.26;100.00
36630;BME280;36256;42.154;23.002;2023-04-16T03:58:51;96682.09;;;8.26;98.98
36630;BME280;36256;42.154;23.002;2023-04-16T04:01:18;96680.19;;;8.23;98.14
36630;BME280;36256;42.154;23.002;2023-04-16T04:03:44;96682.88;;;8.26;98.45
36630;BME280;36256;42.154;23.002;2023-04-16T04:06:11;96681.72;;;8.36;97.62
36630;BME280;36256;42.154;23.002;2023-04-16T04:08:38;96673.78;;;8.35;97.96
36630;BME280;36256;42.154;23.002;2023-04-16T04:11:04;96682.19;;;8.35;98.12
36630;BME280;36256;42.154;23.002;2023-04-16T04:13:31;96686.72;;;8.41;97.90
36630;BME280;36256;42.154;23.002;2023-04-16T04:15:57;96683.44;;;8.34;97.25
36630;BME280;36256;42.154;23.002;2023-04-16T04:18:24;96689.34;;;8.36;97.72
36630;BME280;36256;42.154;23.002;2023-04-16T04:20:51;96697.72;;;8.36;98.34
36630;BME280;36256;42.154;23.002;2023-04-16T04:23:18;96689.91;;;8.31;99.06
36630;BME280;36256;42.154;23.002;2023-04-16T04:25:44;96703.31;;;8.36;98.35
36630;BME280;36256;42.154;23.002;2023-04-16T04:28:11;96698.94;;;8.35;98.15
36630;BME280;36256;42.154;23.002;2023-04-16T04:30:37;96702.41;;;8.39;99.40
36630;BME280;36256;42.154;23.002;2023-04-16T04:33:04;96701.50;;;8.42;98.11
36630;BME280;36256;42.154;23.002;2023-04-16T04:35:32;96687.13;;;8.31;97.04
36630;BME280;36256;42.154;23.002;2023-04-16T04:37:58;96696.41;;;8.49;96.02
36630;BME280;36256;42.154;23.002;2023-04-16T04:40:25;96697.59;;;8.61;95.17
36630;BME280;36256;42.154;23.002;2023-04-16T04:42:51;96694.19;;;8.66;94.58
36630;BME280;36256;42.154;23.002;2023-04-16T04:45:18;96699.63;;;8.60;95.70
36630;BME280;36256;42.154;23.002;2023-04-16T04:47:45;96702.81;;;8.50;95.63
36630;BME280;36256;42.154;23.002;2023-04-16T04:50:11;96707.88;;;8.42;95.61
36630;BME280;36256;42.154;23.002;2023-04-16T04:52:38;96711.72;;;8.36;96.29
36630;BME280;36256;42.154;23.002;2023-04-16T04:55:05;96710.72;;;8.30;97.18
36630;BME280;36256;42.154;23.002;2023-04-16T04:57:31;96714.75;;;8.29;97.38
36630;BME280;36256;42.154;23.002;2023-04-16T04:59:58;96716.31;;;8.30;98.49
36630;BME280;36256;42.154;23.002;2023-04-16T05:02:24;96713.25;;;8.37;98.27
36630;BME280;36256;42.154;23.002;2023-04-16T05:04:51;96718.78;;;8.49;96.75
36630;BME280;36256;42.154;23.002;2023-04-16T05:07:18;96718.53;;;8.56;95.70
36630;BME280;36256;42.154;23.002;2023-04-16T05:09:44;96716.06;;;8.58;94.37
36630;BME280;36256;42.154;23.002;2023-04-16T05:12:11;96721.59;;;8.71;92.87
36630;BME280;36256;42.154;23.002;2023-04-16T05:14:37;96717.91;;;8.74;92.46
36630;BME280;36256;42.154;23.002;2023-04-16T05:17:04;96726.97;;;8.87;90.54
36630;BME280;36256;42.154;23.002;2023-04-16T05:19:31;96725.56;;;8.83;89.48
36630;BME280;36256;42.154;23.002;2023-04-16T05:21:58;96718.25;;;8.85;90.23
36630;BME280;36256;42.154;23.002;2023-04-16T05:24:25;96728.28;;;8.95;91.55
36630;BME280;36256;42.154;23.002;2023-04-16T05:26:51;96727.09;;;9.05;93.80
36630;BME280;36256;42.154;23.002;2023-04-16T05:29:18;96722.47;;;9.11;94.22
36630;BME280;36256;42.154;23.002;2023-04-16T05:31:45;96723.44;;;9.17;92.31
36630;BME280;36256;42.154;23.002;2023-04-16T05:34:11;96727.34;;;9.20;90.57
36630;BME280;36256;42.154;23.002;2023-04-16T05:36:38;96724.06;;;9.21;91.82
36630;BME280;36256;42.154;23.002;2023-04-16T05:39:04;96728.47;;;9.31;92.73
36630;BME280;36256;42.154;23.002;2023-04-16T05:41:31;96723.13;;;9.46;91.77
36630;BME280;36256;42.154;23.002;2023-04-16T05:43:58;96721.44;;;9.58;89.70
36630;BME280;36256;42.154;23.002;2023-04-16T05:46:24;96718.47;;;9.61;90.63
36630;BME280;36256;42.154;23.002;2023-04-16T05:48:51;96717.41;;;9.68;88.52
36630;BME280;36256;42.154;23.002;2023-04-16T05:51:18;96716.50;;;9.71;84.53
36630;BME280;36256;42.154;23.002;2023-04-16T05:53:45;96717.84;;;9.57;85.60
36630;BME280;36256;42.154;23.002;2023-04-16T05:56:11;96716.78;;;9.64;87.68
36630;BME280;36256;42.154;23.002;2023-04-16T05:58:38;96717.09;;;9.57;87.49
36630;BME280;36256;42.154;23.002;2023-04-16T06:01:05;96718.00;;;9.54;87.18
36630;BME280;36256;42.154;23.002;2023-04-16T06:03:32;96716.97;;;9.78;86.73
36630;BME280;36256;42.154;23.002;2023-04-16T06:05:59;96711.50;;;10.14;84.03
36630;BME280;36256;42.154;23.002;2023-04-16T06:08:26;96712.91;;;10.37;82.03
36630;BME280;36256;42.154;23.002;2023-04-16T06:10:52;96706.06;;;10.38;83.19
36630;BME280;36256;42.154;23.002;2023-04-16T06:13:19;96705.44;;;10.43;83.27
36630;BME280;36256;42.154;23.002;2023-04-16T06:15:45;96698.88;;;10.73;80.34
36630;BME280;36256;42.154;23.002;2023-04-16T06:18:13;96691.00;;;11.04;78.79
36630;BME280;36256;42.154;23.002;2023-04-16T06:20:39;96683.63;;;11.25;78.27
36630;BME280;36256;42.154;23.002;2023-04-16T06:23:06;96683.75;;;11.31;76.88
36630;BME280;36256;42.154;23.002;2023-04-16T06:25:33;96678.16;;;11.22;77.04
36630;BME280;36256;42.154;23.002;2023-04-16T06:27:59;96671.00;;;11.30;78.05
36630;BME280;36256;42.154;23.002;2023-04-16T06:30:26;96664.34;;;11.51;74.56
36630;BME280;36256;42.154;23.002;2023-04-16T06:32:53;96648.41;;;11.48;76.39
36630;BME280;36256;42.154;23.002;2023-04-16T06:35:19;96666.47;;;11.56;76.44
36630;BME280;36256;42.154;23.002;2023-04-16T06:37:46;96658.00;;;11.65;75.12
36630;BME280;36256;42.154;23.002;2023-04-16T06:40:13;96659.56;;;11.66;73.93
36630;BME280;36256;42.154;23.002;2023-04-16T06:42:39;96659.56;;;11.66;75.87
36630;BME280;36256;42.154;23.002;2023-04-16T06:45:08;96663.09;;;11.85;72.54
36630;BME280;36256;42.154;23.002;2023-04-16T06:47:35;96654.25;;;11.68;69.90
36630;BME280;36256;42.154;23.002;2023-04-16T06:50:01;96648.31;;;11.75;70.00
36630;BME280;36256;42.154;23.002;2023-04-16T06:52:28;96652.16;;;11.87;70.51
36630;BME280;36256;42.154;23.002;2023-04-16T06:54:55;96641.84;;;12.07;70.88
36630;BME280;36256;42.154;23.002;2023-04-16T06:57:22;96647.03;;;12.23;68.93
36630;BME280;36256;42.154;23.002;2023-04-16T06:59:48;96648.06;;;12.49;71.47
36630;BME280;36256;42.154;23.002;2023-04-16T07:02:15;96647.88;;;12.68;69.79
36630;BME280;36256;42.154;23.002;2023-04-16T07:04:42;96640.53;;;12.85;70.38
36630;BME280;36256;42.154;23.002;2023-04-16T07:07:09;96639.28;;;12.86;68.68
36630;BME280;36256;42.154;23.002;2023-04-16T07:09:35;96644.03;;;12.94;67.74
36630;BME280;36256;42.154;23.002;2023-04-16T07:12:02;96633.53;;;12.95;68.55
36630;BME280;36256;42.154;23.002;2023-04-16T07:14:29;96640.34;;;13.03;68.52
36630;BME280;36256;42.154;23.002;2023-04-16T07:16:55;96637.06;;;13.19;70.35
36630;BME280;36256;42.154;23.002;2023-04-16T07:19:22;96630.31;;;13.46;66.23
36630;BME280;36256;42.154;23.002;2023-04-16T07:21:49;96633.69;;;13.50;65.67
36630;BME280;36256;42.154;23.002;2023-04-16T07:24:16;96626.19;;;13.61;68.46
36630;BME280;36256;42.154;23.002;2023-04-16T07:26:42;96623.72;;;13.69;65.29
36630;BME280;36256;42.154;23.002;2023-04-16T07:29:09;96624.97;;;14.02;64.73
36630;BME280;36256;42.154;23.002;2023-04-16T07:31:36;96625.56;;;14.06;64.37
36630;BME280;36256;42.154;23.002;2023-04-16T07:34:02;96628.78;;;14.19;64.57
36630;BME280;36256;42.154;23.002;2023-04-16T07:36:29;96614.25;;;14.27;62.43
36630;BME280;36256;42.154;23.002;2023-04-16T07:38:57;96596.66;;;14.32;63.14
36630;BME280;36256;42.154;23.002;2023-04-16T07:41:23;96617.66;;;14.31;61.65
36630;BME280;36256;42.154;23.002;2023-04-16T07:43:50;96613.34;;;14.35;64.43
36630;BME280;36256;42.154;23.002;2023-04-16T07:46:17;96609.38;;;14.27;61.70
36630;BME280;36256;42.154;23.002;2023-04-16T07:48:43;96606.22;;;14.40;63.68
36630;BME280;36256;42.154;23.002;2023-04-16T07:51:10;96598.63;;;14.51;62.60
36630;BME280;36256;42.154;23.002;2023-04-16T07:53:37;96596.81;;;14.48;62.00
36630;BME280;36256;42.154;23.002;2023-04-16T07:56:03;96591.22;;;14.54;60.80
36630;BME280;36256;42.154;23.002;2023-04-16T07:58:30;96592.59;;;14.64;61.14
36630;BME280;36256;42.154;23.002;2023-04-16T08:00:57;96589.41;;;14.76;61.83
36630;BME280;36256;42.154;23.002;2023-04-16T08:03:24;96588.13;;;14.77;60.09
36630;BME280;36256;42.154;23.002;2023-04-16T08:05:51;96583.16;;;14.67;59.65
36630;BME280;36256;42.154;23.002;2023-04-16T08:08:18;96592.19;;;14.71;60.05
36630;BME280;36256;42.154;23.002;2023-04-16T08:10:44;96585.06;;;14.81;59.38
36630;BME280;36256;42.154;23.002;2023-04-16T08:13:11;96586.06;;;15.04;57.59
36630;BME280;36256;42.154;23.002;2023-04-16T08:15:37;96573.41;;;15.25;57.66
36630;BME280;36256;42.154;23.002;2023-04-16T08:18:04;96574.78;;;15.40;58.34
36630;BME280;36256;42.154;23.002;2023-04-16T08:20:32;96559.47;;;15.52;57.41
36630;BME280;36256;42.154;23.002;2023-04-16T08:22:59;96564.47;;;15.68;57.74
36630;BME280;36256;42.154;23.002;2023-04-16T08:25:25;96566.78;;;15.70;58.22
36630;BME280;36256;42.154;23.002;2023-04-16T08:27:52;96557.59;;;15.86;54.58
36630;BME280;36256;42.154;23.002;2023-04-16T08:30:18;96556.84;;;15.86;58.30
36630;BME280;36256;42.154;23.002;2023-04-16T08:32:47;96544.44;;;15.78;57.33
36630;BME280;36256;42.154;23.002;2023-04-16T08:35:15;96545.72;;;15.77;55.80
36630;BME280;36256;42.154;23.002;2023-04-16T08:37:42;96551.81;;;15.64;58.67
36630;BME280;36256;42.154;23.002;2023-04-16T08:40:09;96533.25;;;15.52;55.54
36630;BME280;36256;42.154;23.002;2023-04-16T08:42:48;96532.03;;;15.64;54.85
36630;BME280;36256;42.154;23.002;2023-04-16T08:45:18;96545.22;;;15.78;57.13
36630;BME280;36256;42.154;23.002;2023-04-16T08:47:47;96528.50;;;15.80;56.29
36630;BME280;36256;42.154;23.002;2023-04-16T08:50:15;96543.03;;;16.10;55.60
36630;BME280;36256;42.154;23.002;2023-04-16T08:52:49;96548.16;;;16.06;56.79
36630;BME280;36256;42.154;23.002;2023-04-16T08:55:19;96541.78;;;16.16;56.34
36630;BME280;36256;42.154;23.002;2023-04-16T08:57:52;96529.19;;;16.23;56.56
36630;BME280;36256;42.154;23.002;2023-04-16T09:00:20;96535.94;;;16.42;55.51
36630;BME280;36256;42.154;23.002;2023-04-16T09:02:47;96534.38;;;16.41;57.08
36630;BME280;36256;42.154;23.002;2023-04-16T09:05:16;96525.59;;;16.28;54.94
36630;BME280;36256;42.154;23.002;2023-04-16T09:07:44;96537.19;;;16.35;56.36
36630;BME280;36256;42.154;23.002;2023-04-16T09:10:13;96538.00;;;16.47;57.02
36630;BME280;36256;42.154;23.002;2023-04-16T09:12:41;96536.22;;;16.49;55.28
36630;BME280;36256;42.154;23.002;2023-04-16T09:15:12;96534.97;;;16.67;57.18
36630;BME280;36256;42.154;23.002;2023-04-16T09:17:39;96536.78;;;16.76;55.11
36630;BME280;36256;42.154;23.002;2023-04-16T09:20:07;96535.28;;;16.91;57.29
36630;BME280;36256;42.154;23.002;2023-04-16T09:22:34;96538.59;;;17.06;55.75
36630;BME280;36256;42.154;23.002;2023-04-16T09:25:01;96530.38;;;17.14;54.49
36630;BME280;36256;42.154;23.002;2023-04-16T09:27:29;96527.75;;;17.33;54.90
36630;BME280;36256;42.154;23.002;2023-04-16T09:29:56;96523.06;;;17.74;52.52
36630;BME280;36256;42.154;23.002;2023-04-16T09:32:26;96515.97;;;18.08;56.83
36630;BME280;36256;42.154;23.002;2023-04-16T09:34:58;96502.13;;;18.45;50.49
36630;BME280;36256;42.154;23.002;2023-04-16T09:37:29;96504.38;;;18.52;48.16
36630;BME280;36256;42.154;23.002;2023-04-16T09:40:00;96481.59;;;18.63;50.93
36630;BME280;36256;42.154;23.002;2023-04-16T09:42:32;96487.63;;;19.14;46.03
36630;BME280;36256;42.154;23.002;2023-04-16T09:44:58;96478.59;;;19.45;47.03
36630;BME280;36256;42.154;23.002;2023-04-16T09:47:42;96458.16;;;19.65;44.20
36630;BME280;36256;42.154;23.002;2023-04-16T09:50:14;96458.34;;;19.73;42.44
36630;BME280;36256;42.154;23.002;2023-04-16T09:52:49;96456.50;;;19.75;43.50
36630;BME280;36256;42.154;23.002;2023-04-16T09:55:22;96455.44;;;19.54;43.47
36630;BME280;36256;42.154;23.002;2023-04-16T09:57:57;96450.88;;;19.45;44.35
36630;BME280;36256;42.154;23.002;2023-04-16T10:00:24;96445.19;;;19.45;43.75
36630;BME280;36256;42.154;23.002;2023-04-16T10:03:02;96447.88;;;19.38;43.32
36630;BME280;36256;42.154;23.002;2023-04-16T10:05:30;96447.22;;;19.50;44.44
36630;BME280;36256;42.154;23.002;2023-04-16T10:07:59;96454.19;;;19.49;43.22
36630;BME280;36256;42.154;23.002;2023-04-16T10:10:27;96436.00;;;19.58;46.20
36630;BME280;36256;42.154;23.002;2023-04-16T10:12:54;96444.06;;;19.78;42.24
36630;BME280;36256;42.154;23.002;2023-04-16T10:15:21;96432.09;;;19.61;42.56
36630;BME280;36256;42.154;23.002;2023-04-16T10:17:48;96427.69;;;19.60;42.49
36630;BME280;36256;42.154;23.002;2023-04-16T10:20:16;96430.66;;;19.73;42.86
36630;BME280;36256;42.154;23.002;2023-04-16T10:22:43;96420.41;;;19.83;42.64
36630;BME280;36256;42.154;23.002;2023-04-16T10:25:10;96415.72;;;20.04;42.22
36630;BME280;36256;42.154;23.002;2023-04-16T10:27:38;96465.03;;;20.37;40.35
36630;BME280;36256;42.154;23.002;2023-04-16T10:30:07;96460.81;;;20.24;40.83
36630;BME280;36256;42.154;23.002;2023-04-16T10:32:35;96456.34;;;20.48;42.75
36630;BME280;36256;42.154;23.002;2023-04-16T10:35:03;96452.06;;;20.73;40.82
36630;BME280;36256;42.154;23.002;2023-04-16T10:37:31;96445.78;;;20.61;40.20
36630;BME280;36256;42.154;23.002;2023-04-16T10:39:58;96452.59;;;20.21;40.17
36630;BME280;36256;42.154;23.002;2023-04-16T10:42:25;96452.28;;;20.00;41.54
36630;BME280;36256;42.154;23.002;2023-04-16T10:44:52;96448.53;;;19.92;41.77
36630;BME280;36256;42.154;23.002;2023-04-16T10:47:23;96453.00;;;20.06;40.31
36630;BME280;36256;42.154;23.002;2023-04-16T10:49:50;96444.66;;;19.71;40.49
36630;BME280;36256;42.154;23.002;2023-04-16T10:52:17;96442.66;;;19.42;41.35
36630;BME280;36256;42.154;23.002;2023-04-16T10:54:45;96436.19;;;19.66;42.30
36630;BME280;36256;42.154;23.002;2023-04-16T10:57:18;96430.16;;;19.93;41.95
36630;BME280;36256;42.154;23.002;2023-04-16T10:59:47;96435.75;;;20.17;41.04
36630;BME280;36256;42.154;23.002;2023-04-16T11:02:16;96430.78;;;20.23;40.03
36630;BME280;36256;42.154;23.002;2023-04-16T11:04:45;96432.38;;;20.00;39.68
36630;BME280;36256;42.154;23.002;2023-04-16T11:14:48;96411.78;;;20.31;40.72
36630;BME280;36256;42.154;23.002;2023-04-16T11:17:15;96408.22;;;20.25;39.46
36630;BME280;36256;42.154;23.002;2023-04-16T11:19:42;96411.44;;;20.35;39.67
36630;BME280;36256;42.154;23.002;2023-04-16T11:22:12;96405.13;;;20.42;42.88
36630;BME280;36256;42.154;23.002;2023-04-16T11:24:40;96408.63;;;20.67;39.96
36630;BME280;36256;42.154;23.002;2023-04-16T11:27:07;96389.66;;;20.69;40.38
36630;BME280;36256;42.154;23.002;2023-04-16T11:29:34;96403.53;;;20.60;39.04
36630;BME280;36256;42.154;23.002;2023-04-16T11:32:00;96394.78;;;20.58;39.11
36630;BME280;36256;42.154;23.002;2023-04-16T11:34:27;96405.94;;;20.56;40.13
36630;BME280;36256;42.154;23.002;2023-04-16T11:36:54;96399.97;;;20.41;39.73
36630;BME280;36256;42.154;23.002;2023-04-16T11:39:20;96404.44;;;20.68;40.51
36630;BME280;36256;42.154;23.002;2023-04-16T11:41:49;96395.22;;;20.62;38.78
36630;BME280;36256;42.154;23.002;2023-04-16T11:44:25;96386.16;;;20.45;39.94
36630;BME280;36256;42.154;23.002;2023-04-16T11:46:52;96387.28;;;20.42;41.04
36630;BME280;36256;42.154;23.002;2023-04-16T11:49:28;96375.59;;;20.26;34.76
36630;BME280;36256;42.154;23.002;2023-04-16T11:51:56;96366.03;;;20.05;35.43
36630;BME280;36256;42.154;23.002;2023-04-16T11:54:23;96374.66;;;20.18;35.68
36630;BME280;36256;42.154;23.002;2023-04-16T11:56:51;96369.56;;;20.11;35.71
36630;BME280;36256;42.154;23.002;2023-04-16T11:59:22;96365.66;;;20.14;36.00
36630;BME280;36256;42.154;23.002;2023-04-16T12:01:51;96350.09;;;20.15;36.72
36630;BME280;36256;42.154;23.002;2023-04-16T12:04:19;96352.03;;;20.07;35.68
36630;BME280;36256;42.154;23.002;2023-04-16T12:09:36;96341.94;;;20.06;36.67
36630;BME280;36256;42.154;23.002;2023-04-16T12:12:24;96353.16;;;20.36;36.81
36630;BME280;36256;42.154;23.002;2023-04-16T12:14:52;96352.91;;;20.53;36.56
36630;BME280;36256;42.154;23.002;2023-04-16T12:17:19;96355.66;;;20.58;37.18
36630;BME280;36256;42.154;23.002;2023-04-16T12:19:56;96352.91;;;20.34;36.60
36630;BME280;36256;42.154;23.002;2023-04-16T12:22:34;96347.00;;;20.13;36.20
36630;BME280;36256;42.154;23.002;2023-04-16T12:25:23;96346.19;;;20.00;36.11
36630;BME280;36256;42.154;23.002;2023-04-16T12:27:52;96358.31;;;20.00;36.36
36630;BME280;36256;42.154;23.002;2023-04-16T12:30:22;96355.03;;;19.96;36.16
36630;BME280;36256;42.154;23.002;2023-04-16T12:32:51;96351.25;;;19.88;36.85
36630;BME280;36256;42.154;23.002;2023-04-16T12:35:29;96350.66;;;19.95;36.76
36630;BME280;36256;42.154;23.002;2023-04-16T12:37:56;96345.56;;;20.07;36.94
36630;BME280;36256;42.154;23.002;2023-04-16T12:40:23;96341.63;;;20.10;36.21
36630;BME280;36256;42.154;23.002;2023-04-16T12:42:50;96342.84;;;20.14;37.54
36630;BME280;36256;42.154;23.002;2023-04-16T12:45:17;96340.19;;;20.03;35.93
36630;BME280;36256;42.154;23.002;2023-04-16T12:47:43;96334.38;;;20.09;36.55
36630;BME280;36256;42.154;23.002;2023-04-16T12:50:10;96328.16;;;20.10;37.14
36630;BME280;36256;42.154;23.002;2023-04-16T12:52:36;96329.38;;;20.15;36.87
36630;BME280;36256;42.154;23.002;2023-04-16T12:55:03;96322.75;;;20.07;35.29
36630;BME280;36256;42.154;23.002;2023-04-16T12:57:30;96323.53;;;20.07;37.38
36630;BME280;36256;42.154;23.002;2023-04-16T12:59:57;96322.47;;;19.92;37.31
36630;BME280;36256;42.154;23.002;2023-04-16T13:02:24;96330.50;;;19.93;36.59
36630;BME280;36256;42.154;23.002;2023-04-16T13:04:52;96343.41;;;19.94;37.00
36630;BME280;36256;42.154;23.002;2023-04-16T13:07:19;96347.88;;;19.90;36.38